• Join FlightAware (Why Join?)
  • Login
  • US Flag 
01:02PM EDT


 

Airport Tracker/Info


-or-


 

Live Flight TrackerFlight Track Log ✈ KAP927 ✈ 21-Jun-2013 ✈ KOGS - KALB

Flight Track Log - Related Links

Times and Time Zones

All times are in EDT time to prevent confusion due to time zone crossing. See the KAP927 flight status page for this flight to view local times or setup timezone preferences in your user account.

Time Position Orientation Groundspeed Altitude Reporting Facility
EDT Latitude Longitude Course Direction KTS MPH feet Rate Location/Type
05:17PM 44.4856 -75.3325 149° Southeast 156 180 4,500  Level Boston Center
05:18PM 44.4550 -75.2961 140° Southeast 151 174 5,100 540 Climbing Boston Center
05:19PM 44.4200 -75.2828 165° South 137 158 5,600 420 Climbing Boston Center
05:20PM 44.3956 -75.2583 144° Southeast 137 158 6,000 480 Climbing Boston Center
05:21PM 44.3589 -75.2247 147° Southeast 137 158 6,600 540 Climbing Boston Center
05:22PM 44.4902 -75.2947 149° Southeast  Level Estimated
05:22PM 44.3242 -75.1969 150° Southeast 137 158 7,100  Level Boston Center
05:23PM 44.2914 -75.1722 152° Southeast 137 158 7,500 180 Climbing Boston Center
05:24PM 44.2467 -75.1267 144° Southeast 142 163 7,600  Climbing Boston Center
05:25PM 44.2058 -75.0900 147° Southeast 157 181 7,600  Level Boston Center
05:26PM 44.1669 -75.0567 148° Southeast 164 189 7,600  Level Boston Center
05:27PM 44.1281 -75.0231 148° Southeast 169 194 7,600 120 Level Boston Center
05:28PM 44.0914 -74.9867 145° Southeast 162 186 7,900 300 Climbing Boston Center
05:29PM 44.0544 -74.9564 149° Southeast 162 186 8,300 420 Climbing Boston Center
05:30PM 44.0178 -74.9231 147° Southeast 162 186 8,800 420 Climbing Boston Center
05:31PM 43.9811 -74.8869 145° Southeast 162 186 9,200 360 Climbing Boston Center
05:32PM 43.9442 -74.8536 147° Southeast 162 186 9,600 180 Climbing Boston Center
05:33PM 43.9011 -74.8172 149° Southeast 167 192 9,600  Level Boston Center
05:34PM 43.8583 -74.7811 149° Southeast 172 198 9,600  Level Boston Center
05:35PM 43.8256 -74.7508 146° Southeast 178 205 9,600  Level Boston Center
05:36PM 43.7744 -74.7031 146° Southeast 178 205 9,600  Level Boston Center
05:37PM 43.7333 -74.6669 148° Southeast 178 205 9,600  Level Boston Center
05:38PM 43.6903 -74.6308 149° Southeast 178 205 9,600  Level Boston Center
05:39PM 43.6494 -74.5922 146° Southeast 178 205 9,600  Level Boston Center
05:40PM 43.6064 -74.5533 147° Southeast 178 205 9,600  Level Boston Center
05:41PM 43.5653 -74.5175 148° Southeast 178 205 9,600  Level Boston Center
05:42PM 43.5325 -74.4906 149° Southeast 178 205 9,600 -60 Level Boston Center
05:43PM 43.4831 -74.4461 147° Southeast 178 205 9,500 -120 Descending Boston Center
05:44PM 43.4400 -74.4103 149° Southeast 178 205 9,400 -300 Descending Boston Center
05:45PM 43.3969 -74.3717 147° Southeast 178 205 8,900 -600 Descending Boston Center
05:46PM 43.3475 -74.3331 150° Southeast 184 212 8,300 -660 Descending Boston Center
05:47PM 43.3083 -74.3089 156° South 191 220 7,800 -600 Descending Boston Center
05:48PM 43.2528 -74.2644 150° Southeast 189 217 7,200 -540 Descending Boston Center
05:49PM 43.2078 -74.2206 145° Southeast 189 217 6,700 -480 Descending Boston Center
05:50PM 43.1686 -74.1853 147° Southeast 189 217 6,300 -480 Descending Boston Center
05:51PM 43.1192 -74.1411 147° Southeast 185 213 5,800 -540 Descending Boston Center
05:52PM 43.0781 -74.1000 144° Southeast 184 212 5,300 -480 Descending Boston Center
05:53PM 43.0328 -74.0592 147° Southeast 189 217 4,800 -540 Descending Boston Center
05:54PM 42.9836 -74.0153 147° Southeast 189 217 4,200 -540 Descending Boston Center
05:55PM 42.9442 -73.9886 154° Southeast 184 212 3,800 -480 Descending Boston Center
05:56PM 42.8903 -73.9703 166° South 179 206 3,300 -360 Descending Boston Center
05:57PM 42.8447 -73.9550 166° South 179 206 3,100 -120 Descending Boston Center
05:58PM 42.7989 -73.9511 176° South 174 200 3,100  Level Boston Center
05:59PM 42.7428 -73.9414 173° South 174 200 3,100 -420 Level Boston Center
06:00PM 42.7142 -73.8897 127° Southeast 173 199 2,300 -540 Descending Boston Center
06:01PM 42.6750 -73.8550 147° Southeast 163 188 2,000 -240 Descending Boston Center
06:03PM 42.6569 -73.8064 117° Southeast 163 188 1,900 -420 Descending Boston Center
06:04PM 42.7028 -73.8075 359° North 172 198 1,200 -660 Descending Boston Center
06:06PM 42.7333 -73.8000 41° Northeast  Level FlightAware Approximate
06:13PM 42.7491 -73.8020 41° Northeast  Level Estimated
06:14PM 42.7491 -73.8020 41° Northeast  Level Estimated
06:15PM 42.7491 -73.8020 41° Northeast  Level Estimated